sensor_id;sensor_type;location;lat;lon;timestamp;temperature;humidity
736;DHT22;352;48.626;9.238;2023-07-29T00:02:11;18.90;99.90
736;DHT22;352;48.626;9.238;2023-07-29T00:04:38;18.90;99.90
736;DHT22;352;48.626;9.238;2023-07-29T00:07:05;18.90;99.90
736;DHT22;352;48.626;9.238;2023-07-29T00:09:32;18.90;99.90
736;DHT22;352;48.626;9.238;2023-07-29T00:12:00;18.90;99.90
736;DHT22;352;48.626;9.238;2023-07-29T00:14:26;18.90;99.90
736;DHT22;352;48.626;9.238;2023-07-29T00:16:53;18.80;99.90
736;DHT22;352;48.626;9.238;2023-07-29T00:19:20;19.00;99.90
736;DHT22;352;48.626;9.238;2023-07-29T00:21:48;18.80;99.90
736;DHT22;352;48.626;9.238;2023-07-29T00:24:15;18.80;99.90
736;DHT22;352;48.626;9.238;2023-07-29T00:26:42;18.80;99.90
736;DHT22;352;48.626;9.238;2023-07-29T00:29:10;18.40;99.90
736;DHT22;352;48.626;9.238;2023-07-29T00:31:37;18.70;99.90
736;DHT22;352;48.626;9.238;2023-07-29T00:36:30;18.70;99.90
736;DHT22;352;48.626;9.238;2023-07-29T00:38:57;18.70;99.90
736;DHT22;352;48.626;9.238;2023-07-29T00:41:25;18.70;99.90
736;DHT22;352;48.626;9.238;2023-07-29T00:43:52;18.60;99.90
736;DHT22;352;48.626;9.238;2023-07-29T00:46:20;18.60;99.90
736;DHT22;352;48.626;9.238;2023-07-29T00:48:47;18.60;99.90
736;DHT22;352;48.626;9.238;2023-07-29T00:51:14;18.60;99.90
736;DHT22;352;48.626;9.238;2023-07-29T00:53:41;18.60;99.90
736;DHT22;352;48.626;9.238;2023-07-29T00:56:08;18.60;99.90
736;DHT22;352;48.626;9.238;2023-07-29T00:58:34;18.60;99.90
736;DHT22;352;48.626;9.238;2023-07-29T01:01:01;18.60;99.90
736;DHT22;352;48.626;9.238;2023-07-29T01:03:29;18.70;99.90
736;DHT22;352;48.626;9.238;2023-07-29T01:06:06;18.70;99.90
736;DHT22;352;48.626;9.238;2023-07-29T01:08:42;18.70;99.90
736;DHT22;352;48.626;9.238;2023-07-29T01:11:19;18.70;99.90
736;DHT22;352;48.626;9.238;2023-07-29T01:13:52;18.70;99.90
736;DHT22;352;48.626;9.238;2023-07-29T01:16:24;18.70;99.90
736;DHT22;352;48.626;9.238;2023-07-29T01:18:55;18.80;99.90
736;DHT22;352;48.626;9.238;2023-07-29T01:21:22;18.80;99.90
736;DHT22;352;48.626;9.238;2023-07-29T01:23:53;18.80;99.90
736;DHT22;352;48.626;9.238;2023-07-29T01:26:23;18.80;99.90
736;DHT22;352;48.626;9.238;2023-07-29T01:28:50;18.80;99.90
736;DHT22;352;48.626;9.238;2023-07-29T01:31:21;18.80;99.90
736;DHT22;352;48.626;9.238;2023-07-29T01:33:56;18.80;99.90
736;DHT22;352;48.626;9.238;2023-07-29T01:36:27;18.80;99.90
736;DHT22;352;48.626;9.238;2023-07-29T01:38:56;18.80;99.90
736;DHT22;352;48.626;9.238;2023-07-29T01:41:24;18.90;99.90
736;DHT22;352;48.626;9.238;2023-07-29T01:43:52;18.90;99.90
736;DHT22;352;48.626;9.238;2023-07-29T01:46:20;18.90;99.90
736;DHT22;352;48.626;9.238;2023-07-29T01:48:47;18.90;99.90
736;DHT22;352;48.626;9.238;2023-07-29T01:51:13;18.90;99.90
736;DHT22;352;48.626;9.238;2023-07-29T01:53:40;18.90;99.90
736;DHT22;352;48.626;9.238;2023-07-29T01:56:08;18.90;99.90
736;DHT22;352;48.626;9.238;2023-07-29T01:58:35;18.90;99.90
736;DHT22;352;48.626;9.238;2023-07-29T02:01:01;18.90;99.90
736;DHT22;352;48.626;9.238;2023-07-29T02:03:28;18.90;99.90
736;DHT22;352;48.626;9.238;2023-07-29T02:05:55;18.90;99.90
736;DHT22;352;48.626;9.238;2023-07-29T02:08:21;18.90;99.90
736;DHT22;352;48.626;9.238;2023-07-29T02:10:48;18.90;99.90
736;DHT22;352;48.626;9.238;2023-07-29T02:13:16;18.90;99.90
736;DHT22;352;48.626;9.238;2023-07-29T02:15:43;18.90;99.90
736;DHT22;352;48.626;9.238;2023-07-29T02:18:10;18.90;99.90
736;DHT22;352;48.626;9.238;2023-07-29T02:20:36;18.90;99.90
736;DHT22;352;48.626;9.238;2023-07-29T02:23:03;18.90;99.90
736;DHT22;352;48.626;9.238;2023-07-29T02:25:30;18.90;99.90
736;DHT22;352;48.626;9.238;2023-07-29T02:27:56;18.90;99.90
736;DHT22;352;48.626;9.238;2023-07-29T02:30:23;18.90;99.90
736;DHT22;352;48.626;9.238;2023-07-29T02:32:50;18.90;99.90
736;DHT22;352;48.626;9.238;2023-07-29T02:35:17;18.80;99.90
736;DHT22;352;48.626;9.238;2023-07-29T02:37:44;18.70;99.90
736;DHT22;352;48.626;9.238;2023-07-29T02:40:11;18.70;99.90
736;DHT22;352;48.626;9.238;2023-07-29T02:42:38;18.70;99.90
736;DHT22;352;48.626;9.238;2023-07-29T02:45:05;18.60;99.90
736;DHT22;352;48.626;9.238;2023-07-29T02:47:36;18.60;99.90
736;DHT22;352;48.626;9.238;2023-07-29T02:50:03;18.60;99.90
736;DHT22;352;48.626;9.238;2023-07-29T02:52:30;18.60;99.90
736;DHT22;352;48.626;9.238;2023-07-29T02:54:57;18.60;99.90
736;DHT22;352;48.626;9.238;2023-07-29T02:57:23;18.60;99.90
736;DHT22;352;48.626;9.238;2023-07-29T02:59:50;18.60;99.90
736;DHT22;352;48.626;9.238;2023-07-29T03:02:17;18.60;99.90
736;DHT22;352;48.626;9.238;2023-07-29T03:04:45;18.60;99.90
736;DHT22;352;48.626;9.238;2023-07-29T03:07:14;18.60;99.90
736;DHT22;352;48.626;9.238;2023-07-29T03:09:41;18.60;99.90
736;DHT22;352;48.626;9.238;2023-07-29T03:12:09;18.60;99.90
736;DHT22;352;48.626;9.238;2023-07-29T03:14:36;18.70;99.90
736;DHT22;352;48.626;9.238;2023-07-29T03:17:03;18.70;99.90
736;DHT22;352;48.626;9.238;2023-07-29T03:19:30;18.70;99.90
736;DHT22;352;48.626;9.238;2023-07-29T03:21:58;18.70;99.90
736;DHT22;352;48.626;9.238;2023-07-29T03:24:25;18.70;99.90
736;DHT22;352;48.626;9.238;2023-07-29T03:26:52;18.70;99.90
736;DHT22;352;48.626;9.238;2023-07-29T03:29:18;19.10;99.90
736;DHT22;352;48.626;9.238;2023-07-29T03:31:45;18.70;99.90
736;DHT22;352;48.626;9.238;2023-07-29T03:34:12;18.70;99.90
736;DHT22;352;48.626;9.238;2023-07-29T03:36:38;18.70;99.90
736;DHT22;352;48.626;9.238;2023-07-29T03:39:07;18.90;99.90
736;DHT22;352;48.626;9.238;2023-07-29T03:41:34;18.60;99.90
736;DHT22;352;48.626;9.238;2023-07-29T03:44:00;18.70;99.90
736;DHT22;352;48.626;9.238;2023-07-29T03:46:27;18.70;99.90
736;DHT22;352;48.626;9.238;2023-07-29T03:48:54;18.70;99.90
736;DHT22;352;48.626;9.238;2023-07-29T03:51:20;18.70;99.90
736;DHT22;352;48.626;9.238;2023-07-29T03:53:48;18.70;99.90
736;DHT22;352;48.626;9.238;2023-07-29T03:56:16;18.70;99.90
736;DHT22;352;48.626;9.238;2023-07-29T03:58:43;18.70;99.90
736;DHT22;352;48.626;9.238;2023-07-29T04:01:10;18.60;99.90
736;DHT22;352;48.626;9.238;2023-07-29T04:03:36;18.90;99.90
736;DHT22;352;48.626;9.238;2023-07-29T04:06:03;18.70;99.90
736;DHT22;352;48.626;9.238;2023-07-29T04:08:30;18.70;99.90
736;DHT22;352;48.626;9.238;2023-07-29T04:10:57;18.70;99.90
736;DHT22;352;48.626;9.238;2023-07-29T04:13:25;18.70;99.90
736;DHT22;352;48.626;9.238;2023-07-29T04:15:52;18.70;99.90
736;DHT22;352;48.626;9.238;2023-07-29T04:18:19;18.70;99.90
736;DHT22;352;48.626;9.238;2023-07-29T04:20:45;18.70;99.90
736;DHT22;352;48.626;9.238;2023-07-29T04:23:12;18.60;99.90
736;DHT22;352;48.626;9.238;2023-07-29T04:25:39;18.50;99.90
736;DHT22;352;48.626;9.238;2023-07-29T04:28:05;18.40;99.90
736;DHT22;352;48.626;9.238;2023-07-29T04:30:33;18.40;99.90
736;DHT22;352;48.626;9.238;2023-07-29T04:33:00;18.40;99.90
736;DHT22;352;48.626;9.238;2023-07-29T04:35:27;18.50;99.90
736;DHT22;352;48.626;9.238;2023-07-29T04:37:54;18.60;99.90
736;DHT22;352;48.626;9.238;2023-07-29T04:40:20;18.60;99.90
736;DHT22;352;48.626;9.238;2023-07-29T04:42:48;18.60;99.90
736;DHT22;352;48.626;9.238;2023-07-29T04:45:15;18.60;99.90
736;DHT22;352;48.626;9.238;2023-07-29T04:47:43;18.70;99.90
736;DHT22;352;48.626;9.238;2023-07-29T04:50:10;18.70;99.90
736;DHT22;352;48.626;9.238;2023-07-29T04:52:36;18.60;99.90
736;DHT22;352;48.626;9.238;2023-07-29T04:55:04;18.60;99.90
736;DHT22;352;48.626;9.238;2023-07-29T04:57:30;18.70;99.90
736;DHT22;352;48.626;9.238;2023-07-29T04:59:57;18.70;99.90
736;DHT22;352;48.626;9.238;2023-07-29T05:02:24;18.70;99.90
736;DHT22;352;48.626;9.238;2023-07-29T05:04:53;18.70;99.90
736;DHT22;352;48.626;9.238;2023-07-29T05:07:19;18.70;99.90
736;DHT22;352;48.626;9.238;2023-07-29T05:09:47;18.80;99.90
736;DHT22;352;48.626;9.238;2023-07-29T05:12:14;18.80;99.90
736;DHT22;352;48.626;9.238;2023-07-29T05:14:41;18.80;99.90
736;DHT22;352;48.626;9.238;2023-07-29T05:17:07;18.80;99.90
736;DHT22;352;48.626;9.238;2023-07-29T05:19:34;18.80;99.90
736;DHT22;352;48.626;9.238;2023-07-29T05:22:02;18.80;99.90
736;DHT22;352;48.626;9.238;2023-07-29T05:24:29;18.80;99.90
736;DHT22;352;48.626;9.238;2023-07-29T05:26:56;18.80;99.90
736;DHT22;352;48.626;9.238;2023-07-29T05:29:22;18.80;99.90
736;DHT22;352;48.626;9.238;2023-07-29T05:31:49;18.80;99.90
736;DHT22;352;48.626;9.238;2023-07-29T05:34:16;18.70;99.90
736;DHT22;352;48.626;9.238;2023-07-29T05:36:42;18.70;99.90
736;DHT22;352;48.626;9.238;2023-07-29T05:39:10;18.50;99.90
736;DHT22;352;48.626;9.238;2023-07-29T05:41:38;18.70;99.90
736;DHT22;352;48.626;9.238;2023-07-29T05:44:05;18.60;99.90
736;DHT22;352;48.626;9.238;2023-07-29T05:46:31;18.70;99.90
736;DHT22;352;48.626;9.238;2023-07-29T05:48:58;18.70;99.90
736;DHT22;352;48.626;9.238;2023-07-29T05:51:25;18.70;99.90
736;DHT22;352;48.626;9.238;2023-07-29T05:53:51;18.70;99.90
736;DHT22;352;48.626;9.238;2023-07-29T05:56:20;18.90;99.90
736;DHT22;352;48.626;9.238;2023-07-29T05:58:46;18.80;99.90
736;DHT22;352;48.626;9.238;2023-07-29T06:01:13;18.80;99.90
736;DHT22;352;48.626;9.238;2023-07-29T06:03:40;18.80;99.90
736;DHT22;352;48.626;9.238;2023-07-29T06:06:06;18.80;99.90
736;DHT22;352;48.626;9.238;2023-07-29T06:08:33;18.80;99.90
736;DHT22;352;48.626;9.238;2023-07-29T06:11:00;18.80;99.90
736;DHT22;352;48.626;9.238;2023-07-29T06:13:28;18.90;99.90
736;DHT22;352;48.626;9.238;2023-07-29T06:20:49;19.70;99.90
736;DHT22;352;48.626;9.238;2023-07-29T06:23:16;20.40;99.90
736;DHT22;352;48.626;9.238;2023-07-29T06:25:42;20.60;99.90
736;DHT22;352;48.626;9.238;2023-07-29T06:30:38;20.30;99.90
736;DHT22;352;48.626;9.238;2023-07-29T06:47:48;20.90;99.90
736;DHT22;352;48.626;9.238;2023-07-29T06:52:41;20.90;99.90
736;DHT22;352;48.626;9.238;2023-07-29T06:55:08;21.00;99.90
736;DHT22;352;48.626;9.238;2023-07-29T07:00:02;20.70;99.90
736;DHT22;352;48.626;9.238;2023-07-29T07:04:57;20.50;99.90
736;DHT22;352;48.626;9.238;2023-07-29T07:07:24;20.30;99.90
736;DHT22;352;48.626;9.238;2023-07-29T07:14:45;20.00;99.90
736;DHT22;352;48.626;9.238;2023-07-29T07:19:39;19.40;99.90
736;DHT22;352;48.626;9.238;2023-07-29T07:22:07;19.40;99.90
736;DHT22;352;48.626;9.238;2023-07-29T07:27:01;19.30;99.90
736;DHT22;352;48.626;9.238;2023-07-29T07:39:18;19.10;99.90
736;DHT22;352;48.626;9.238;2023-07-29T07:41:45;19.30;99.90
736;DHT22;352;48.626;9.238;2023-07-29T07:44:13;19.20;99.90
736;DHT22;352;48.626;9.238;2023-07-29T07:51:38;19.30;99.90
736;DHT22;352;48.626;9.238;2023-07-29T07:56:33;19.50;99.90
736;DHT22;352;48.626;9.238;2023-07-29T08:13:43;19.70;99.90
736;DHT22;352;48.626;9.238;2023-07-29T08:23:32;19.90;99.90
736;DHT22;352;48.626;9.238;2023-07-29T08:26:00;20.00;99.90
736;DHT22;352;48.626;9.238;2023-07-29T08:28:28;20.00;99.90
736;DHT22;352;48.626;9.238;2023-07-29T08:30:56;20.10;99.90
736;DHT22;352;48.626;9.238;2023-07-29T08:40:48;20.30;99.90
736;DHT22;352;48.626;9.238;2023-07-29T08:43:19;20.30;99.90
736;DHT22;352;48.626;9.238;2023-07-29T08:48:21;20.40;99.90
736;DHT22;352;48.626;9.238;2023-07-29T08:50:51;20.50;99.90
736;DHT22;352;48.626;9.238;2023-07-29T09:05:35;21.10;99.90
736;DHT22;352;48.626;9.238;2023-07-29T09:15:27;21.60;99.90
736;DHT22;352;48.626;9.238;2023-07-29T09:17:55;22.20;99.90
736;DHT22;352;48.626;9.238;2023-07-29T09:20:25;22.10;99.90
736;DHT22;352;48.626;9.238;2023-07-29T09:22:55;22.10;99.90
736;DHT22;352;48.626;9.238;2023-07-29T09:25:24;22.50;99.90
736;DHT22;352;48.626;9.238;2023-07-29T09:27:51;22.70;99.90
736;DHT22;352;48.626;9.238;2023-07-29T09:30:18;22.90;99.90
736;DHT22;352;48.626;9.238;2023-07-29T09:32:45;23.20;99.90
736;DHT22;352;48.626;9.238;2023-07-29T09:35:12;23.30;99.90
736;DHT22;352;48.626;9.238;2023-07-29T09:37:39;23.60;99.90
736;DHT22;352;48.626;9.238;2023-07-29T09:40:14;23.90;99.90
736;DHT22;352;48.626;9.238;2023-07-29T09:42:47;24.40;99.90
736;DHT22;352;48.626;9.238;2023-07-29T09:45:19;25.00;99.90
736;DHT22;352;48.626;9.238;2023-07-29T09:47:47;25.40;99.90
736;DHT22;352;48.626;9.238;2023-07-29T09:50:13;25.70;99.90
736;DHT22;352;48.626;9.238;2023-07-29T09:52:41;25.70;99.90
736;DHT22;352;48.626;9.238;2023-07-29T09:55:10;25.60;99.90
736;DHT22;352;48.626;9.238;2023-07-29T09:57:38;25.50;99.90
736;DHT22;352;48.626;9.238;2023-07-29T10:00:06;25.60;99.90
736;DHT22;352;48.626;9.238;2023-07-29T10:02:37;25.50;99.90
736;DHT22;352;48.626;9.238;2023-07-29T10:05:05;25.50;99.90
736;DHT22;352;48.626;9.238;2023-07-29T10:07:33;25.50;99.90
736;DHT22;352;48.626;9.238;2023-07-29T10:10:01;25.70;99.90
736;DHT22;352;48.626;9.238;2023-07-29T10:12:30;25.80;99.90
736;DHT22;352;48.626;9.238;2023-07-29T10:14:59;25.80;99.90
736;DHT22;352;48.626;9.238;2023-07-29T10:17:26;25.80;99.90
736;DHT22;352;48.626;9.238;2023-07-29T10:19:54;25.80;99.90
736;DHT22;352;48.626;9.238;2023-07-29T10:22:25;25.90;99.90
736;DHT22;352;48.626;9.238;2023-07-29T10:24:55;25.90;99.90
736;DHT22;352;48.626;9.238;2023-07-29T10:27:24;26.00;99.90
736;DHT22;352;48.626;9.238;2023-07-29T10:29:55;26.10;99.90
736;DHT22;352;48.626;9.238;2023-07-29T10:32:25;26.50;99.90
736;DHT22;352;48.626;9.238;2023-07-29T10:34:52;26.80;99.90
736;DHT22;352;48.626;9.238;2023-07-29T10:37:19;26.80;99.90
736;DHT22;352;48.626;9.238;2023-07-29T10:39:52;27.10;99.90
736;DHT22;352;48.626;9.238;2023-07-29T10:42:19;27.40;99.90
736;DHT22;352;48.626;9.238;2023-07-29T10:44:47;27.70;99.90
736;DHT22;352;48.626;9.238;2023-07-29T10:47:18;27.90;99.90
736;DHT22;352;48.626;9.238;2023-07-29T10:49:46;27.80;99.90
736;DHT22;352;48.626;9.238;2023-07-29T10:52:13;27.90;99.90
736;DHT22;352;48.626;9.238;2023-07-29T10:54:45;28.10;99.90
736;DHT22;352;48.626;9.238;2023-07-29T10:57:15;28.30;99.90
736;DHT22;352;48.626;9.238;2023-07-29T10:59:55;28.30;99.90
736;DHT22;352;48.626;9.238;2023-07-29T11:02:29;28.30;99.90
736;DHT22;352;48.626;9.238;2023-07-29T11:04:56;28.40;99.90
736;DHT22;352;48.626;9.238;2023-07-29T11:07:24;28.40;99.90
736;DHT22;352;48.626;9.238;2023-07-29T11:10:00;28.40;99.90
736;DHT22;352;48.626;9.238;2023-07-29T11:12:34;28.20;99.90
736;DHT22;352;48.626;9.238;2023-07-29T11:15:04;28.20;99.90
736;DHT22;352;48.626;9.238;2023-07-29T11:17:33;28.20;99.90
736;DHT22;352;48.626;9.238;2023-07-29T11:20:02;28.10;99.90
736;DHT22;352;48.626;9.238;2023-07-29T11:22:29;28.00;99.90
736;DHT22;352;48.626;9.238;2023-07-29T11:24:56;28.00;99.90
736;DHT22;352;48.626;9.238;2023-07-29T11:27:23;27.90;99.90
736;DHT22;352;48.626;9.238;2023-07-29T11:29:49;27.80;99.90
736;DHT22;352;48.626;9.238;2023-07-29T11:32:16;27.60;99.90
736;DHT22;352;48.626;9.238;2023-07-29T11:34:44;27.50;99.90
736;DHT22;352;48.626;9.238;2023-07-29T11:37:11;27.30;99.90
736;DHT22;352;48.626;9.238;2023-07-29T11:39:39;27.10;99.90
736;DHT22;352;48.626;9.238;2023-07-29T11:42:06;27.10;99.90
736;DHT22;352;48.626;9.238;2023-07-29T11:44:33;27.10;99.90
736;DHT22;352;48.626;9.238;2023-07-29T11:47:00;27.20;99.90
736;DHT22;352;48.626;9.238;2023-07-29T11:49:27;27.30;99.90
736;DHT22;352;48.626;9.238;2023-07-29T11:51:55;27.50;99.90
736;DHT22;352;48.626;9.238;2023-07-29T11:54:21;27.60;99.90
736;DHT22;352;48.626;9.238;2023-07-29T11:56:49;27.70;99.90
736;DHT22;352;48.626;9.238;2023-07-29T11:59:16;27.80;99.90
736;DHT22;352;48.626;9.238;2023-07-29T12:01:43;27.90;99.90
736;DHT22;352;48.626;9.238;2023-07-29T12:04:11;27.80;99.90
736;DHT22;352;48.626;9.238;2023-07-29T12:06:39;27.80;99.90
736;DHT22;352;48.626;9.238;2023-07-29T12:09:07;27.40;99.90
736;DHT22;352;48.626;9.238;2023-07-29T12:11:35;27.60;99.90
736;DHT22;352;48.626;9.238;2023-07-29T12:14:01;27.50;99.90
736;DHT22;352;48.626;9.238;2023-07-29T12:16:29;27.50;99.90
736;DHT22;352;48.626;9.238;2023-07-29T12:19:00;27.50;99.90
736;DHT22;352;48.626;9.238;2023-07-29T12:21:27;27.50;99.90
736;DHT22;352;48.626;9.238;2023-07-29T12:23:55;27.50;99.90
736;DHT22;352;48.626;9.238;2023-07-29T12:26:28;27.50;99.90
736;DHT22;352;48.626;9.238;2023-07-29T12:28:55;27.50;99.90
736;DHT22;352;48.626;9.238;2023-07-29T12:31:31;27.60;99.90
736;DHT22;352;48.626;9.238;2023-07-29T12:33:58;27.50;99.90
736;DHT22;352;48.626;9.238;2023-07-29T12:36:27;27.50;99.90
736;DHT22;352;48.626;9.238;2023-07-29T12:39:06;27.50;99.90
736;DHT22;352;48.626;9.238;2023-07-29T12:41:34;27.50;99.90
736;DHT22;352;48.626;9.238;2023-07-29T12:44:01;27.40;99.90
736;DHT22;352;48.626;9.238;2023-07-29T12:46:29;27.40;99.90
736;DHT22;352;48.626;9.238;2023-07-29T12:48:56;27.40;99.90
736;DHT22;352;48.626;9.238;2023-07-29T12:51:22;27.30;99.90
736;DHT22;352;48.626;9.238;2023-07-29T12:53:49;27.40;99.90
736;DHT22;352;48.626;9.238;2023-07-29T12:56:16;27.30;99.90
736;DHT22;352;48.626;9.238;2023-07-29T12:58:44;27.30;99.90
736;DHT22;352;48.626;9.238;2023-07-29T13:01:10;27.30;99.90
736;DHT22;352;48.626;9.238;2023-07-29T13:03:42;27.20;99.90
736;DHT22;352;48.626;9.238;2023-07-29T13:06:08;27.20;99.90
736;DHT22;352;48.626;9.238;2023-07-29T13:08:35;27.20;99.90
736;DHT22;352;48.626;9.238;2023-07-29T13:11:02;27.20;99.90
736;DHT22;352;48.626;9.238;2023-07-29T13:13:29;27.20;99.70
736;DHT22;352;48.626;9.238;2023-07-29T13:15:57;27.10;99.90
736;DHT22;352;48.626;9.238;2023-07-29T13:18:24;27.10;99.90
736;DHT22;352;48.626;9.238;2023-07-29T13:20:51;27.10;99.90
736;DHT22;352;48.626;9.238;2023-07-29T13:23:17;27.10;99.90
736;DHT22;352;48.626;9.238;2023-07-29T13:25:44;27.10;98.80
736;DHT22;352;48.626;9.238;2023-07-29T13:28:11;27.10;99.90
736;DHT22;352;48.626;9.238;2023-07-29T13:30:39;27.10;99.90
736;DHT22;352;48.626;9.238;2023-07-29T13:33:07;27.20;99.90
736;DHT22;352;48.626;9.238;2023-07-29T13:35:34;26.80;99.90
736;DHT22;352;48.626;9.238;2023-07-29T13:38:01;27.00;97.50
736;DHT22;352;48.626;9.238;2023-07-29T13:40:28;27.00;98.10
736;DHT22;352;48.626;9.238;2023-07-29T13:42:55;27.00;96.50
736;DHT22;352;48.626;9.238;2023-07-29T13:45:22;27.00;99.20
736;DHT22;352;48.626;9.238;2023-07-29T13:47:49;26.90;96.90
736;DHT22;352;48.626;9.238;2023-07-29T13:50:17;27.00;98.70
736;DHT22;352;48.626;9.238;2023-07-29T13:52:44;27.00;98.20
736;DHT22;352;48.626;9.238;2023-07-29T13:55:11;26.90;98.40
736;DHT22;352;48.626;9.238;2023-07-29T13:57:37;26.90;98.30
736;DHT22;352;48.626;9.238;2023-07-29T14:00:07;26.90;99.00
736;DHT22;352;48.626;9.238;2023-07-29T14:02:34;26.80;95.90
736;DHT22;352;48.626;9.238;2023-07-29T14:05:00;26.80;95.30
736;DHT22;352;48.626;9.238;2023-07-29T14:07:29;26.80;95.80
736;DHT22;352;48.626;9.238;2023-07-29T14:09:55;26.70;96.90
736;DHT22;352;48.626;9.238;2023-07-29T14:12:22;26.70;96.50
736;DHT22;352;48.626;9.238;2023-07-29T14:14:49;26.70;96.40
736;DHT22;352;48.626;9.238;2023-07-29T14:17:15;26.60;95.40
736;DHT22;352;48.626;9.238;2023-07-29T14:19:42;26.60;97.90
736;DHT22;352;48.626;9.238;2023-07-29T14:22:09;26.60;97.20
736;DHT22;352;48.626;9.238;2023-07-29T14:24:37;26.60;95.10
736;DHT22;352;48.626;9.238;2023-07-29T14:27:04;26.60;96.70
736;DHT22;352;48.626;9.238;2023-07-29T14:29:31;26.60;96.40
736;DHT22;352;48.626;9.238;2023-07-29T14:31:58;26.60;95.40
736;DHT22;352;48.626;9.238;2023-07-29T14:34:24;26.60;99.10
736;DHT22;352;48.626;9.238;2023-07-29T14:36:51;26.60;96.00
736;DHT22;352;48.626;9.238;2023-07-29T14:39:18;26.30;99.90
736;DHT22;352;48.626;9.238;2023-07-29T14:41:46;26.60;97.60
736;DHT22;352;48.626;9.238;2023-07-29T14:44:13;26.60;97.10
736;DHT22;352;48.626;9.238;2023-07-29T14:46:40;26.60;98.00
736;DHT22;352;48.626;9.238;2023-07-29T14:49:06;26.50;99.90
736;DHT22;352;48.626;9.238;2023-07-29T14:51:34;26.60;97.10
736;DHT22;352;48.626;9.238;2023-07-29T14:54:01;26.60;96.50
736;DHT22;352;48.626;9.238;2023-07-29T14:56:27;26.60;98.20
736;DHT22;352;48.626;9.238;2023-07-29T14:58:55;26.60;99.30
736;DHT22;352;48.626;9.238;2023-07-29T15:01:22;26.60;98.40
736;DHT22;352;48.626;9.238;2023-07-29T15:03:49;26.60;96.60
736;DHT22;352;48.626;9.238;2023-07-29T15:06:15;26.50;96.50
736;DHT22;352;48.626;9.238;2023-07-29T15:08:42;26.50;97.90
736;DHT22;352;48.626;9.238;2023-07-29T15:11:09;26.50;99.20
736;DHT22;352;48.626;9.238;2023-07-29T15:13:36;26.40;97.30
736;DHT22;352;48.626;9.238;2023-07-29T15:16:05;26.40;99.60
736;DHT22;352;48.626;9.238;2023-07-29T15:18:31;26.40;99.90
736;DHT22;352;48.626;9.238;2023-07-29T15:20:59;26.30;99.20
736;DHT22;352;48.626;9.238;2023-07-29T15:23:27;26.30;99.10
736;DHT22;352;48.626;9.238;2023-07-29T15:25:54;26.30;99.90
736;DHT22;352;48.626;9.238;2023-07-29T15:28:21;26.30;99.90
736;DHT22;352;48.626;9.238;2023-07-29T15:30:47;26.30;99.90
736;DHT22;352;48.626;9.238;2023-07-29T15:33:16;26.30;99.20
736;DHT22;352;48.626;9.238;2023-07-29T15:35:42;26.20;98.40
736;DHT22;352;48.626;9.238;2023-07-29T15:38:09;26.20;98.60
736;DHT22;352;48.626;9.238;2023-07-29T15:40:38;26.10;98.60
736;DHT22;352;48.626;9.238;2023-07-29T15:43:04;26.10;99.30
736;DHT22;352;48.626;9.238;2023-07-29T15:45:31;26.10;99.90
736;DHT22;352;48.626;9.238;2023-07-29T15:47:58;26.10;99.50
736;DHT22;352;48.626;9.238;2023-07-29T15:50:26;26.10;98.20
736;DHT22;352;48.626;9.238;2023-07-29T15:52:53;26.10;98.50
736;DHT22;352;48.626;9.238;2023-07-29T15:55:19;26.10;99.10
736;DHT22;352;48.626;9.238;2023-07-29T15:57:46;26.10;98.50
736;DHT22;352;48.626;9.238;2023-07-29T16:00:13;26.10;98.60
736;DHT22;352;48.626;9.238;2023-07-29T16:02:40;26.10;99.70
736;DHT22;352;48.626;9.238;2023-07-29T16:05:07;26.10;98.70
736;DHT22;352;48.626;9.238;2023-07-29T16:07:35;26.10;99.10
736;DHT22;352;48.626;9.238;2023-07-29T16:10:02;26.10;99.00
736;DHT22;352;48.626;9.238;2023-07-29T16:12:29;26.00;99.40
736;DHT22;352;48.626;9.238;2023-07-29T16:14:55;26.00;99.90
736;DHT22;352;48.626;9.238;2023-07-29T16:17:22;26.00;99.90
736;DHT22;352;48.626;9.238;2023-07-29T16:19:54;26.00;99.90
736;DHT22;352;48.626;9.238;2023-07-29T16:22:21;25.90;98.70
736;DHT22;352;48.626;9.238;2023-07-29T16:24:50;26.00;98.90
736;DHT22;352;48.626;9.238;2023-07-29T16:27:17;25.90;98.40
736;DHT22;352;48.626;9.238;2023-07-29T16:29:44;25.90;99.00
736;DHT22;352;48.626;9.238;2023-07-29T16:32:11;25.90;98.00
736;DHT22;352;48.626;9.238;2023-07-29T16:34:38;25.80;98.60
736;DHT22;352;48.626;9.238;2023-07-29T16:37:05;25.80;98.20
736;DHT22;352;48.626;9.238;2023-07-29T16:39:32;25.80;99.10
736;DHT22;352;48.626;9.238;2023-07-29T16:42:00;25.80;99.50
736;DHT22;352;48.626;9.238;2023-07-29T16:44:27;25.70;99.00
736;DHT22;352;48.626;9.238;2023-07-29T16:46:54;25.70;99.60
736;DHT22;352;48.626;9.238;2023-07-29T16:49:20;25.70;99.90
736;DHT22;352;48.626;9.238;2023-07-29T16:51:48;25.60;99.90
736;DHT22;352;48.626;9.238;2023-07-29T16:54:15;25.50;99.90
736;DHT22;352;48.626;9.238;2023-07-29T16:56:43;25.50;99.90
736;DHT22;352;48.626;9.238;2023-07-29T16:59:11;25.40;99.90
736;DHT22;352;48.626;9.238;2023-07-29T17:01:38;25.40;99.90
736;DHT22;352;48.626;9.238;2023-07-29T17:04:05;25.30;99.90
736;DHT22;352;48.626;9.238;2023-07-29T17:06:32;25.20;99.90
736;DHT22;352;48.626;9.238;2023-07-29T17:08:58;25.20;99.90
736;DHT22;352;48.626;9.238;2023-07-29T17:11:25;25.00;99.90
736;DHT22;352;48.626;9.238;2023-07-29T17:13:52;25.00;99.90
736;DHT22;352;48.626;9.238;2023-07-29T17:16:20;24.90;99.90
736;DHT22;352;48.626;9.238;2023-07-29T17:18:46;24.70;99.90
736;DHT22;352;48.626;9.238;2023-07-29T17:21:13;24.70;99.90
736;DHT22;352;48.626;9.238;2023-07-29T17:23:40;24.50;99.90
736;DHT22;352;48.626;9.238;2023-07-29T17:26:07;24.40;99.90
736;DHT22;352;48.626;9.238;2023-07-29T17:28:34;24.30;99.90
736;DHT22;352;48.626;9.238;2023-07-29T17:31:01;24.20;99.90
736;DHT22;352;48.626;9.238;2023-07-29T17:33:30;24.00;99.90
736;DHT22;352;48.626;9.238;2023-07-29T17:35:57;23.90;99.90
736;DHT22;352;48.626;9.238;2023-07-29T17:38:24;23.90;99.90
736;DHT22;352;48.626;9.238;2023-07-29T17:40:50;23.80;99.90
736;DHT22;352;48.626;9.238;2023-07-29T17:43:17;23.70;99.90
736;DHT22;352;48.626;9.238;2023-07-29T17:45:44;23.70;99.90
736;DHT22;352;48.626;9.238;2023-07-29T17:48:11;23.50;99.90
736;DHT22;352;48.626;9.238;2023-07-29T17:50:40;23.40;99.90
736;DHT22;352;48.626;9.238;2023-07-29T17:53:08;23.30;99.90
736;DHT22;352;48.626;9.238;2023-07-29T17:55:36;23.30;99.90
736;DHT22;352;48.626;9.238;2023-07-29T17:58:04;23.20;99.90
736;DHT22;352;48.626;9.238;2023-07-29T18:00:31;23.10;99.90
736;DHT22;352;48.626;9.238;2023-07-29T18:02:58;22.90;99.90
736;DHT22;352;48.626;9.238;2023-07-29T18:05:24;22.90;99.90
736;DHT22;352;48.626;9.238;2023-07-29T18:07:52;22.90;99.90
736;DHT22;352;48.626;9.238;2023-07-29T18:12:46;22.70;99.90
736;DHT22;352;48.626;9.238;2023-07-29T18:15:13;22.60;99.90
736;DHT22;352;48.626;9.238;2023-07-29T18:17:40;22.50;99.90
736;DHT22;352;48.626;9.238;2023-07-29T18:20:08;22.40;99.90
736;DHT22;352;48.626;9.238;2023-07-29T18:22:35;22.30;99.90
736;DHT22;352;48.626;9.238;2023-07-29T18:25:03;22.30;99.90
736;DHT22;352;48.626;9.238;2023-07-29T18:27:30;22.30;99.90
736;DHT22;352;48.626;9.238;2023-07-29T18:29:57;22.30;99.90